Time;durP1;ratioP1;P1;durP2;ratioP2;P2;SDS_P1;SDS_P2;PMS_P1;PMS_P2;Temp;Humidity;BMP_temperature;BMP_pressure;BME280_temperature;BME280_humidity;BME280_pressure;Samples;Min_cycle;Max_cycle;Signal;HPM_P1;HPM_P2
2024/02/22 00:00:06;;;;;;;86.50;55.00;;;;;;;;;;5050586;28;20040;-50
2024/02/22 00:02:39;;;;;;;86.85;52.97;;;;;;;;;;5031454;28;20036;-50
2024/02/22 00:05:06;;;;;;;90.53;56.67;;;;;;;;;;5031239;28;20025;-50
2024/02/22 00:07:32;;;;;;;83.57;52.95;;;;;;;;;;5032515;28;20483;-50
2024/02/22 00:10:00;;;;;;;81.30;54.97;;;;;;;;;;5031276;28;20037;-50
2024/02/22 00:12:26;;;;;;;80.53;53.20;;;;;;;;;;5031360;28;20396;-51
2024/02/22 00:14:55;;;;;;;93.10;55.38;;;;;;;;;;5031237;28;20033;-50
2024/02/22 00:17:23;;;;;;;;;;;;;;;;;;5049794;28;20044;-52
2024/02/22 00:19:50;;;;;;;84.95;53.33;;;;;;;;;;5050834;28;20283;-51
2024/02/22 00:22:16;;;;;;;84.35;52.38;;;;;;;;;;5050902;28;20057;-51
2024/02/22 00:24:42;;;;;;;90.50;55.20;;;;;;;;;;5049097;28;20029;-50
2024/02/22 00:27:08;;;;;;;87.75;55.00;;;;;;;;;;5049161;28;20115;-51
2024/02/22 00:29:34;;;;;;;81.05;52.55;;;;;;;;;;5050700;28;20028;-50
2024/02/22 00:32:01;;;;;;;85.25;54.22;;;;;;;;;;5038416;28;20033;-50
2024/02/22 00:34:27;;;;;;;80.97;54.40;;;;;;;;;;5034762;28;20526;-49
2024/02/22 00:36:53;;;;;;;82.10;52.20;;;;;;;;;;5034787;28;20125;-50
2024/02/22 00:39:19;;;;;;;84.25;53.95;;;;;;;;;;5035829;28;20029;-50
2024/02/22 00:41:45;;;;;;;83.05;53.00;;;;;;;;;;5034848;28;20428;-50
2024/02/22 00:44:12;;;;;;;;;;;;;;;;;;5034939;28;20033;-51
2024/02/22 00:46:38;;;;;;;82.35;52.78;;;;;;;;;;5047160;28;20306;-49
2024/02/22 00:49:05;;;;;;;78.78;51.85;;;;;;;;;;5052749;28;20081;-49
2024/02/22 00:51:31;;;;;;;79.30;52.42;;;;;;;;;;5054241;28;20025;-50
2024/02/22 00:53:57;;;;;;;83.28;49.42;;;;;;;;;;5052218;28;20051;-50
2024/02/22 00:56:23;;;;;;;80.45;51.30;;;;;;;;;;5054164;28;20486;-49
2024/02/22 00:58:50;;;;;;;90.20;51.75;;;;;;;;;;5052752;28;20059;-50
2024/02/22 01:01:17;;;;;;;85.33;53.67;;;;;;;;;;5044356;28;20036;-50
2024/02/22 01:03:43;;;;;;;82.35;50.30;;;;;;;;;;5032989;28;20037;-50
2024/02/22 01:06:11;;;;;;;85.65;54.00;;;;;;;;;;5051721;28;20031;-50
2024/02/22 01:08:37;;;;;;;85.18;52.40;;;;;;;;;;5052737;28;20037;-50
2024/02/22 01:11:04;;;;;;;79.00;52.80;;;;;;;;;;5036357;28;20472;-52
2024/02/22 01:13:30;;;;;;;81.75;53.13;;;;;;;;;;5034112;28;20021;-51
2024/02/22 01:15:56;;;;;;;93.20;57.43;;;;;;;;;;5046162;28;20112;-51
2024/02/22 01:18:22;;;;;;;95.25;53.05;;;;;;;;;;5034103;28;20339;-51
2024/02/22 01:20:49;;;;;;;84.75;51.72;;;;;;;;;;5040804;28;20376;-50
2024/02/22 01:23:15;;;;;;;84.70;52.57;;;;;;;;;;5053790;28;20029;-51
2024/02/22 01:25:41;;;;;;;84.85;53.92;;;;;;;;;;5053694;28;20025;-50
2024/02/22 01:28:12;;;;;;;87.22;49.88;;;;;;;;;;5053821;28;20506;-50
2024/02/22 01:30:38;;;;;;;84.95;53.35;;;;;;;;;;5054083;28;20426;-50
2024/02/22 01:33:05;;;;;;;92.40;53.35;;;;;;;;;;5045304;28;20076;-50
2024/02/22 01:35:31;;;;;;;80.05;52.38;;;;;;;;;;5043896;28;20036;-51
2024/02/22 01:37:57;;;;;;;84.28;55.10;;;;;;;;;;5053135;28;20032;-50
2024/02/22 01:40:24;;;;;;;82.05;54.10;;;;;;;;;;5050549;28;20435;-50
2024/02/22 01:42:50;;;;;;;85.10;56.43;;;;;;;;;;5053180;28;20426;-50
2024/02/22 01:45:16;;;;;;;85.20;54.27;;;;;;;;;;5050045;28;20079;-50
2024/02/22 01:47:43;;;;;;;85.60;52.90;;;;;;;;;;5033606;28;20018;-50
2024/02/22 01:50:10;;;;;;;81.20;49.33;;;;;;;;;;5033455;28;20433;-50
2024/02/22 01:52:36;;;;;;;;;;;;;;;;;;5033905;28;20260;-50
2024/02/22 01:55:02;;;;;;;82.68;52.60;;;;;;;;;;5032205;28;19909;-50
2024/02/22 01:57:29;;;;;;;78.47;51.57;;;;;;;;;;5034354;28;20037;-50
2024/02/22 01:59:55;;;;;;;79.97;51.92;;;;;;;;;;5077704;22;20084;-46
2024/02/22 02:02:21;;;;;;;80.75;53.60;;;;;;;;;;5038771;28;20037;-46
2024/02/22 02:04:48;;;;;;;83.90;52.28;;;;;;;;;;5051801;28;20029;-46
2024/02/22 02:07:14;;;;;;;79.03;52.17;;;;;;;;;;5051653;28;20025;-45
2024/02/22 02:09:40;;;;;;;84.50;53.28;;;;;;;;;;5053083;28;20029;-46
2024/02/22 02:12:07;;;;;;;80.68;51.50;;;;;;;;;;5053120;28;20053;-46
2024/02/22 02:14:33;;;;;;;83.05;51.50;;;;;;;;;;5053072;28;20044;-51
2024/02/22 02:17:00;;;;;;;85.20;53.50;;;;;;;;;;5052777;28;20025;-47
2024/02/22 02:19:26;;;;;;;86.22;52.85;;;;;;;;;;5043511;28;20438;-45
2024/02/22 02:22:08;;;;;;;84.07;53.92;;;;;;;;;;5032850;28;20030;-47
2024/02/22 02:24:42;;;;;;;82.70;53.50;;;;;;;;;;5032766;28;20037;-49
2024/02/22 02:27:08;;;;;;;79.18;51.92;;;;;;;;;;5032602;28;20068;-46
2024/02/22 02:29:34;;;;;;;82.03;52.00;;;;;;;;;;5032741;28;20048;-46
2024/02/22 02:32:00;;;;;;;92.60;53.65;;;;;;;;;;5032805;28;20128;-46
2024/02/22 02:34:27;;;;;;;81.20;51.53;;;;;;;;;;5031551;28;20124;-46
2024/02/22 02:36:53;;;;;;;83.53;50.88;;;;;;;;;;5032521;28;20025;-46
2024/02/22 02:39:19;;;;;;;85.47;52.78;;;;;;;;;;5031314;28;20029;-45
2024/02/22 02:41:45;;;;;;;83.35;51.20;;;;;;;;;;5032474;28;20037;-47
2024/02/22 02:44:12;;;;;;;81.57;51.72;;;;;;;;;;5032370;28;20065;-45
2024/02/22 02:46:38;;;;;;;82.70;52.72;;;;;;;;;;5031160;28;20475;-45
2024/02/22 02:49:05;;;;;;;83.40;52.28;;;;;;;;;;5031042;28;20124;-46
2024/02/22 02:51:32;;;;;;;84.20;55.50;;;;;;;;;;5032242;28;20472;-46
2024/02/22 02:53:58;;;;;;;83.30;53.75;;;;;;;;;;5030620;28;20037;-47
2024/02/22 02:56:24;;;;;;;83.25;51.45;;;;;;;;;;5045049;28;20054;-45
2024/02/22 02:58:50;;;;;;;85.07;53.05;;;;;;;;;;5052125;28;20049;-48
2024/02/22 03:01:17;;;;;;;82.10;53.13;;;;;;;;;;5050836;28;20036;-46
2024/02/22 03:03:43;;;;;;;86.80;53.15;;;;;;;;;;5051388;28;20387;-46
2024/02/22 03:06:09;;;;;;;87.50;54.35;;;;;;;;;;5048491;28;20120;-45
2024/02/22 03:08:35;;;;;;;86.38;53.17;;;;;;;;;;5051958;28;20391;-46
2024/02/22 03:11:02;;;;;;;80.03;52.58;;;;;;;;;;5034699;28;20101;-46
2024/02/22 03:13:28;;;;;;;87.85;52.08;;;;;;;;;;5033433;28;20056;-46
2024/02/22 03:15:55;;;;;;;81.47;53.50;;;;;;;;;;5044489;28;20033;-48
2024/02/22 03:18:21;;;;;;;77.50;50.83;;;;;;;;;;5051074;28;20057;-47
2024/02/22 03:20:47;;;;;;;81.65;53.58;;;;;;;;;;5051472;28;20029;-46
2024/02/22 03:23:13;;;;;;;83.50;52.95;;;;;;;;;;5050152;28;20025;-46
2024/02/22 03:25:41;;;;;;;82.45;51.22;;;;;;;;;;5051519;28;20025;-46
2024/02/22 03:28:10;;;;;;;;;;;;;;;;;;5050883;28;20032;-47
2024/02/22 03:30:36;;;;;;;81.75;52.20;;;;;;;;;;5031619;28;19931;-46
2024/02/22 03:33:02;;;;;;;86.10;53.65;;;;;;;;;;5031896;28;20558;-46
2024/02/22 03:35:29;;;;;;;87.90;54.07;;;;;;;;;;5030254;28;20080;-48
2024/02/22 03:37:56;;;;;;;84.35;53.15;;;;;;;;;;5031719;28;20104;-46
2024/02/22 03:40:22;;;;;;;86.83;52.93;;;;;;;;;;5033272;28;20456;-47
2024/02/22 03:42:48;;;;;;;85.07;54.45;;;;;;;;;;5051468;28;20029;-46
2024/02/22 03:45:14;;;;;;;84.93;53.88;;;;;;;;;;5051405;28;20044;-46
2024/02/22 03:47:41;;;;;;;89.75;50.33;;;;;;;;;;5050276;28;20559;-46
2024/02/22 03:50:08;;;;;;;81.50;51.88;;;;;;;;;;5051493;28;20033;-46
2024/02/22 03:52:34;;;;;;;;;;;;;;;;;;5042684;28;20115;-45
2024/02/22 03:55:00;;;;;;;84.75;51.72;;;;;;;;;;5044404;28;20409;-47
2024/02/22 03:57:26;;;;;;;84.47;53.05;;;;;;;;;;5051345;28;20368;-46
2024/02/22 03:59:53;;;;;;;82.93;53.47;;;;;;;;;;5049249;28;20052;-46
2024/02/22 04:02:20;;;;;;;80.43;50.88;;;;;;;;;;5051443;28;20394;-48
2024/02/22 04:04:49;;;;;;;83.43;51.45;;;;;;;;;;5048457;28;20095;-46
2024/02/22 04:07:16;;;;;;;80.03;52.10;;;;;;;;;;5048085;28;20140;-46
2024/02/22 04:09:42;;;;;;;87.13;54.10;;;;;;;;;;5035357;28;20120;-46
2024/02/22 04:12:08;;;;;;;77.22;50.33;;;;;;;;;;5037827;28;20049;-46
2024/02/22 04:14:34;;;;;;;86.10;51.80;;;;;;;;;;5053437;28;20079;-46
2024/02/22 04:17:01;;;;;;;78.18;54.17;;;;;;;;;;5048175;28;20040;-45
2024/02/22 04:19:27;;;;;;;83.63;52.33;;;;;;;;;;5030636;28;20100;-45
2024/02/22 04:21:53;;;;;;;80.50;50.58;;;;;;;;;;5055070;28;20482;-46
2024/02/22 04:24:20;;;;;;;78.75;50.78;;;;;;;;;;5039268;28;20041;-46
2024/02/22 04:26:47;;;;;;;77.22;51.22;;;;;;;;;;5034936;28;20033;-48
2024/02/22 04:29:15;;;;;;;80.35;50.83;;;;;;;;;;5038968;28;20395;-46
2024/02/22 04:31:41;;;;;;;;;;;;;;;;;;5054569;28;20025;-46
2024/02/22 04:34:07;;;;;;;77.43;50.65;;;;;;;;;;5053622;28;19916;-47
2024/02/22 04:36:33;;;;;;;76.10;48.05;;;;;;;;;;5054674;28;20074;-47
2024/02/22 04:38:59;;;;;;;76.85;50.10;;;;;;;;;;5053297;28;20521;-46
2024/02/22 04:41:25;;;;;;;75.90;50.35;;;;;;;;;;5054773;28;20033;-48
2024/02/22 04:43:52;;;;;;;77.57;50.03;;;;;;;;;;5053250;28;20025;-47
2024/02/22 04:46:18;;;;;;;85.20;51.88;;;;;;;;;;5047970;28;20051;-46
2024/02/22 04:48:45;;;;;;;76.22;49.47;;;;;;;;;;5033319;28;20036;-47
2024/02/22 04:51:11;;;;;;;74.80;48.50;;;;;;;;;;5052680;28;20434;-46
2024/02/22 04:53:37;;;;;;;81.60;50.65;;;;;;;;;;5046212;28;20033;-43
2024/02/22 04:56:03;;;;;;;73.45;49.70;;;;;;;;;;5050387;28;20071;-49
2024/02/22 04:58:29;;;;;;;75.40;50.37;;;;;;;;;;5053694;28;20028;-46
2024/02/22 05:00:56;;;;;;;69.40;47.53;;;;;;;;;;5054281;28;20058;-46
2024/02/22 05:03:23;;;;;;;82.13;50.85;;;;;;;;;;5054347;28;20033;-46
2024/02/22 05:05:50;;;;;;;75.97;49.03;;;;;;;;;;5054715;28;20104;-47
2024/02/22 05:08:16;;;;;;;82.40;52.03;;;;;;;;;;5054254;28;20055;-49
2024/02/22 05:10:42;;;;;;;73.47;49.85;;;;;;;;;;5052851;28;20271;-45
2024/02/22 05:13:08;;;;;;;78.13;49.70;;;;;;;;;;5054188;28;20033;-46
2024/02/22 05:15:35;;;;;;;78.95;50.80;;;;;;;;;;5052762;28;20044;-49
2024/02/22 05:18:03;;;;;;;84.85;51.72;;;;;;;;;;5052493;28;20037;-48
2024/02/22 05:20:29;;;;;;;75.97;48.97;;;;;;;;;;5053891;28;20029;-52
2024/02/22 05:22:55;;;;;;;79.15;51.85;;;;;;;;;;5053840;28;20032;-50
2024/02/22 05:25:21;;;;;;;76.30;48.80;;;;;;;;;;5053662;28;20021;-47
2024/02/22 05:27:48;;;;;;;84.17;51.50;;;;;;;;;;5053943;28;20032;-47
2024/02/22 05:30:14;;;;;;;75.53;49.60;;;;;;;;;;5053964;28;20025;-47
2024/02/22 05:32:40;;;;;;;76.53;50.43;;;;;;;;;;5054014;28;20035;-46
2024/02/22 05:35:07;;;;;;;83.53;49.67;;;;;;;;;;5053797;28;20119;-46
2024/02/22 05:37:33;;;;;;;73.80;48.90;;;;;;;;;;5053874;28;20033;-47
2024/02/22 05:40:00;;;;;;;80.38;50.45;;;;;;;;;;5053574;28;20325;-48
2024/02/22 05:42:27;;;;;;;71.85;48.60;;;;;;;;;;5053598;28;20032;-46
2024/02/22 05:44:53;;;;;;;74.95;49.50;;;;;;;;;;5053576;28;20033;-49
2024/02/22 05:47:20;;;;;;;75.85;48.50;;;;;;;;;;5053500;28;20036;-48
2024/02/22 05:49:46;;;;;;;76.07;50.00;;;;;;;;;;5052184;28;20502;-47
2024/02/22 05:52:12;;;;;;;74.35;49.13;;;;;;;;;;5053375;28;20122;-47
2024/02/22 05:54:41;;;;;;;83.07;51.38;;;;;;;;;;5052138;28;20103;-47
2024/02/22 05:57:07;;;;;;;76.82;49.47;;;;;;;;;;5053197;28;20045;-47
2024/02/22 05:59:34;;;;;;;74.18;50.90;;;;;;;;;;5051808;28;20037;-47
2024/02/22 06:02:00;;;;;;;80.07;51.28;;;;;;;;;;5053204;28;20107;-51
2024/02/22 06:04:26;;;;;;;84.87;52.53;;;;;;;;;;5051887;28;20036;-50
2024/02/22 06:06:52;;;;;;;79.13;51.60;;;;;;;;;;5052807;28;20020;-46
2024/02/22 06:09:19;;;;;;;82.30;53.88;;;;;;;;;;5053144;28;20119;-47
2024/02/22 06:11:45;;;;;;;80.97;50.80;;;;;;;;;;5051848;28;20033;-46
2024/02/22 06:14:11;;;;;;;76.55;50.70;;;;;;;;;;5053047;28;20029;-47
2024/02/22 06:16:37;;;;;;;80.32;50.05;;;;;;;;;;5052741;28;20059;-46
2024/02/22 06:19:04;;;;;;;85.45;51.65;;;;;;;;;;5052919;28;20028;-46
2024/02/22 06:21:30;;;;;;;84.15;49.28;;;;;;;;;;5052788;28;20083;-45
2024/02/22 06:23:56;;;;;;;77.50;46.97;;;;;;;;;;5051551;28;20483;-45
2024/02/22 06:26:22;;;;;;;73.13;47.90;;;;;;;;;;5052705;28;20028;-48
2024/02/22 06:28:48;;;;;;;78.35;49.03;;;;;;;;;;5051931;28;20052;-47
2024/02/22 06:31:15;;;;;;;71.80;47.78;;;;;;;;;;5052647;28;20424;-47
2024/02/22 06:33:41;;;;;;;74.78;48.97;;;;;;;;;;5052685;28;20076;-47
2024/02/22 06:36:09;;;;;;;79.18;48.45;;;;;;;;;;5052448;28;20029;-46
2024/02/22 06:38:40;;;;;;;78.75;49.50;;;;;;;;;;5052500;28;20552;-47
2024/02/22 06:41:06;;;;;;;76.63;49.13;;;;;;;;;;5053061;28;20029;-50
2024/02/22 06:43:32;;;;;;;75.63;49.75;;;;;;;;;;5051266;28;20472;-49
2024/02/22 06:45:59;;;;;;;76.85;51.20;;;;;;;;;;5052231;28;20032;-48
2024/02/22 06:48:25;;;;;;;75.38;49.15;;;;;;;;;;5052311;28;20468;-48
2024/02/22 06:50:51;;;;;;;74.00;47.03;;;;;;;;;;5052291;28;20072;-48
2024/02/22 06:53:17;;;;;;;73.10;50.25;;;;;;;;;;5052379;28;20494;-46
2024/02/22 06:55:43;;;;;;;77.60;50.80;;;;;;;;;;5052130;28;20028;-46
2024/02/22 06:58:10;;;;;;;81.65;50.35;;;;;;;;;;5050943;28;20497;-48
2024/02/22 07:00:36;;;;;;;68.35;46.97;;;;;;;;;;5051874;28;20491;-46
2024/02/22 07:03:02;;;;;;;77.32;48.80;;;;;;;;;;5052074;28;20102;-46
2024/02/22 07:05:29;;;;;;;76.97;48.60;;;;;;;;;;5051797;28;20028;-46
2024/02/22 07:07:55;;;;;;;67.83;46.67;;;;;;;;;;5052014;28;20108;-48
2024/02/22 07:10:21;;;;;;;74.67;48.47;;;;;;;;;;5050642;28;20498;-48
2024/02/22 07:12:48;;;;;;;72.93;47.90;;;;;;;;;;5050702;28;20112;-46
2024/02/22 07:15:16;;;;;;;71.23;46.47;;;;;;;;;;5050492;28;20263;-47
2024/02/22 07:17:42;;;;;;;74.32;47.33;;;;;;;;;;5051879;28;20272;-48
2024/02/22 07:20:09;;;;;;;71.10;46.10;;;;;;;;;;5050740;28;20047;-46
2024/02/22 07:22:35;;;;;;;74.05;47.13;;;;;;;;;;5051991;28;20097;-45
2024/02/22 07:25:01;;;;;;;66.20;44.65;;;;;;;;;;5033747;28;20041;-48
2024/02/22 07:27:27;;;;;;;67.30;42.47;;;;;;;;;;5051663;28;20029;-47
2024/02/22 07:29:54;;;;;;;73.28;48.58;;;;;;;;;;5051622;28;20047;-47
2024/02/22 07:32:20;;;;;;;63.60;43.78;;;;;;;;;;5051708;28;20025;-48
2024/02/22 07:34:47;;;;;;;65.10;44.00;;;;;;;;;;5050242;28;20506;-46
2024/02/22 07:37:13;;;;;;;73.53;44.83;;;;;;;;;;5050264;28;20510;-47
2024/02/22 07:39:39;;;;;;;71.90;47.22;;;;;;;;;;5051450;28;20036;-46
2024/02/22 07:42:05;;;;;;;70.03;44.92;;;;;;;;;;5050256;28;20036;-46
2024/02/22 07:44:32;;;;;;;72.27;44.77;;;;;;;;;;5051515;28;20029;-47
2024/02/22 07:46:58;;;;;;;75.35;45.22;;;;;;;;;;5051323;28;20370;-50
2024/02/22 07:49:24;;;;;;;70.28;44.80;;;;;;;;;;5051410;28;20487;-46
2024/02/22 07:51:50;;;;;;;69.68;44.75;;;;;;;;;;5051369;28;20033;-46
2024/02/22 07:54:16;;;;;;;76.63;47.27;;;;;;;;;;5051496;28;20024;-50
2024/02/22 07:56:43;;;;;;;69.22;45.85;;;;;;;;;;5051323;28;20021;-46
2024/02/22 07:59:11;;;;;;;68.63;45.83;;;;;;;;;;5051528;28;20029;-47
2024/02/22 08:01:40;;;;;;;76.78;47.10;;;;;;;;;;5050373;28;20043;-48
2024/02/22 08:04:07;;;;;;;68.93;45.63;;;;;;;;;;5051265;28;20063;-47
2024/02/22 08:06:33;;;;;;;71.25;47.22;;;;;;;;;;5051329;28;20079;-50
2024/02/22 08:08:59;;;;;;;74.93;51.05;;;;;;;;;;5051534;28;20479;-46
2024/02/22 08:11:27;;;;;;;71.43;46.53;;;;;;;;;;5050073;28;20047;-48
2024/02/22 08:13:53;;;;;;;72.28;47.25;;;;;;;;;;5050540;28;20028;-47
2024/02/22 08:16:19;;;;;;;64.15;43.83;;;;;;;;;;5029930;28;20030;-47
2024/02/22 08:18:45;;;;;;;65.82;44.10;;;;;;;;;;5027584;28;20034;-46
2024/02/22 08:21:12;;;;;;;76.83;46.47;;;;;;;;;;5011665;28;20030;-50
2024/02/22 08:23:38;;;;;;;68.82;46.08;;;;;;;;;;5014209;28;20149;-46
2024/02/22 08:26:04;;;;;;;71.57;46.95;;;;;;;;;;5020135;28;20540;-46
2024/02/22 08:28:31;;;;;;;75.20;49.63;;;;;;;;;;5011497;28;20104;-46
2024/02/22 08:30:57;;;;;;;73.93;47.27;;;;;;;;;;5022354;28;20472;-49
2024/02/22 08:33:27;;;;;;;81.43;49.00;;;;;;;;;;5029377;28;20556;-48
2024/02/22 08:35:56;;;;;;;75.68;49.35;;;;;;;;;;5027673;28;20026;-46
2024/02/22 08:38:25;;;;;;;87.55;54.53;;;;;;;;;;5029947;28;20060;-50
2024/02/22 08:40:51;;;;;;;80.22;52.00;;;;;;;;;;5022398;28;20025;-47
2024/02/22 08:43:18;;;;;;;123.35;72.90;;;;;;;;;;5028953;28;20044;-47
2024/02/22 08:45:44;;;;;;;91.82;57.75;;;;;;;;;;5015882;28;20084;-48
2024/02/22 08:48:10;;;;;;;86.68;53.97;;;;;;;;;;5012538;28;20034;-49
2024/02/22 08:50:37;;;;;;;76.82;50.45;;;;;;;;;;5026674;28;20049;-50
2024/02/22 08:53:04;;;;;;;70.57;47.17;;;;;;;;;;5032774;28;20018;-50
2024/02/22 08:55:30;;;;;;;113.60;58.75;;;;;;;;;;5034604;28;20438;-51
2024/02/22 08:57:56;;;;;;;73.70;51.40;;;;;;;;;;5034587;28;20041;-48
2024/02/22 09:00:22;;;;;;;80.40;54.47;;;;;;;;;;5028828;28;20405;-50
2024/02/22 09:02:51;;;;;;;73.50;49.67;;;;;;;;;;5034586;28;20057;-48
2024/02/22 09:05:17;;;;;;;75.13;47.38;;;;;;;;;;5026549;28;20040;-51
2024/02/22 09:07:43;;;;;;;72.63;50.47;;;;;;;;;;5034470;28;20067;-46
2024/02/22 09:10:10;;;;;;;77.68;46.67;;;;;;;;;;5027558;28;20107;-49
2024/02/22 09:12:40;;;;;;;71.88;46.85;;;;;;;;;;5034315;28;20041;-47
2024/02/22 09:15:07;;;;;;;68.80;47.10;;;;;;;;;;5027303;28;20167;-49
2024/02/22 09:17:34;;;;;;;74.95;49.20;;;;;;;;;;5034217;28;20029;-52
2024/02/22 09:20:01;;;;;;;74.05;49.30;;;;;;;;;;5026399;28;20131;-52
2024/02/22 09:22:27;;;;;;;76.93;49.33;;;;;;;;;;5014449;28;20033;-48
2024/02/22 09:24:54;;;;;;;73.18;49.45;;;;;;;;;;5023309;28;20030;-49
2024/02/22 09:27:20;;;;;;;72.13;49.33;;;;;;;;;;5014607;28;20390;-51
2024/02/22 09:29:47;;;;;;;69.97;48.10;;;;;;;;;;5017971;28;20028;-48
2024/02/22 09:32:13;;;;;;;74.32;50.42;;;;;;;;;;5032823;28;20022;-49
2024/02/22 09:34:39;;;;;;;72.57;49.00;;;;;;;;;;5028626;28;20033;-47
2024/02/22 09:37:06;;;;;;;74.63;49.70;;;;;;;;;;5016365;28;20029;-47
2024/02/22 09:39:33;;;;;;;72.63;51.75;;;;;;;;;;5021999;28;20033;-47
2024/02/22 09:42:00;;;;;;;82.22;52.72;;;;;;;;;;5017409;28;20033;-46
2024/02/22 09:44:32;;;;;;;83.25;54.10;;;;;;;;;;5015277;28;20034;-48
2024/02/22 09:47:00;;;;;;;82.97;50.65;;;;;;;;;;5030331;28;20091;-47
2024/02/22 09:49:27;;;;;;;82.57;55.58;;;;;;;;;;5033544;28;20099;-46
2024/02/22 09:51:59;;;;;;;76.23;53.90;;;;;;;;;;5033013;28;20028;-47
2024/02/22 09:54:26;;;;;;;81.82;53.35;;;;;;;;;;5033420;28;20084;-47
2024/02/22 09:56:55;;;;;;;86.85;55.65;;;;;;;;;;5031674;28;20484;-47
2024/02/22 09:59:23;;;;;;;86.82;53.22;;;;;;;;;;5033309;28;20040;-46
2024/02/22 10:01:50;;;;;;;82.05;56.53;;;;;;;;;;5033181;28;20072;-50
2024/02/22 10:04:19;;;;;;;89.20;59.28;;;;;;;;;;5033220;28;20037;-48
2024/02/22 10:06:47;;;;;;;87.45;57.72;;;;;;;;;;5031821;28;20032;-48
2024/02/22 10:09:14;;;;;;;89.43;55.53;;;;;;;;;;5032122;28;20123;-48
2024/02/22 10:11:47;;;;;;;82.43;57.33;;;;;;;;;;5033205;28;20455;-48
2024/02/22 10:14:14;;;;;;;91.03;58.90;;;;;;;;;;5033128;28;20111;-48
2024/02/22 10:16:41;;;;;;;97.05;58.13;;;;;;;;;;5031670;28;20029;-48
2024/02/22 10:19:07;;;;;;;92.57;58.05;;;;;;;;;;5033378;28;20025;-46
2024/02/22 10:21:34;;;;;;;92.80;60.10;;;;;;;;;;5033025;28;20381;-46
2024/02/22 10:24:00;;;;;;;97.05;62.15;;;;;;;;;;5033013;28;20451;-49
2024/02/22 10:26:26;;;;;;;85.07;57.83;;;;;;;;;;5031587;28;20403;-48
2024/02/22 10:28:56;;;;;;;86.47;55.70;;;;;;;;;;5032822;28;20449;-46
2024/02/22 10:31:25;;;;;;;84.03;54.05;;;;;;;;;;5032651;28;20033;-46
2024/02/22 10:33:58;;;;;;;82.28;55.78;;;;;;;;;;5032710;28;20029;-47
2024/02/22 10:36:25;;;;;;;88.80;56.78;;;;;;;;;;5032536;28;20029;-46
2024/02/22 10:38:51;;;;;;;;;;;;;;;;;;5033151;28;20087;-49
2024/02/22 10:41:18;;;;;;;85.18;55.42;;;;;;;;;;5032507;28;19999;-48
2024/02/22 10:43:44;;;;;;;88.50;58.42;;;;;;;;;;5032572;28;20022;-47
2024/02/22 10:46:12;;;;;;;83.38;54.90;;;;;;;;;;5032274;28;20045;-47
2024/02/22 10:48:44;;;;;;;81.40;54.63;;;;;;;;;;5032421;28;20100;-47
2024/02/22 10:51:10;;;;;;;80.35;50.17;;;;;;;;;;5031229;28;20033;-47
2024/02/22 10:53:37;;;;;;;79.78;53.00;;;;;;;;;;5031084;28;20033;-47
2024/02/22 10:56:04;;;;;;;75.78;52.05;;;;;;;;;;5032124;28;20029;-47
2024/02/22 10:58:32;;;;;;;;;;;;;;;;;;5032743;28;20030;-47
2024/02/22 11:00:59;;;;;;;79.13;51.13;;;;;;;;;;5031964;28;19913;-46
2024/02/22 11:03:26;;;;;;;80.75;51.38;;;;;;;;;;5030921;28;20392;-50
2024/02/22 11:05:53;;;;;;;77.15;52.55;;;;;;;;;;5032180;28;20029;-47
2024/02/22 11:08:22;;;;;;;81.75;50.15;;;;;;;;;;5032180;28;20105;-46
2024/02/22 11:11:05;;;;;;;80.07;53.03;;;;;;;;;;5030844;28;20119;-46
2024/02/22 11:13:31;;;;;;;79.07;52.58;;;;;;;;;;5032043;28;20108;-48
2024/02/22 11:15:57;;;;;;;83.10;53.50;;;;;;;;;;5031539;28;20480;-48
2024/02/22 11:18:24;;;;;;;75.37;52.00;;;;;;;;;;5032132;28;20534;-47
2024/02/22 11:20:50;;;;;;;86.88;54.13;;;;;;;;;;5035922;28;20549;-47
2024/02/22 11:23:22;;;;;;;91.17;56.87;;;;;;;;;;5037319;28;20063;-47
2024/02/22 11:25:49;;;;;;;85.18;55.30;;;;;;;;;;5048371;28;20131;-47
2024/02/22 11:28:16;;;;;;;80.57;53.58;;;;;;;;;;5046177;28;20021;-47
2024/02/22 11:30:45;;;;;;;93.63;62.67;;;;;;;;;;5034761;28;20391;-50
2024/02/22 11:33:12;;;;;;;84.00;56.00;;;;;;;;;;5036810;28;20087;-46
2024/02/22 11:35:40;;;;;;;81.78;53.42;;;;;;;;;;5038105;28;20037;-47
2024/02/22 11:38:06;;;;;;;96.65;66.28;;;;;;;;;;5024787;28;20113;-48
2024/02/22 11:40:36;;;;;;;89.22;58.67;;;;;;;;;;5032390;28;20037;-48
2024/02/22 11:43:02;;;;;;;89.80;61.75;;;;;;;;;;5031567;28;20139;-50
2024/02/22 11:45:29;;;;;;;90.18;57.88;;;;;;;;;;5020952;28;20518;-49
2024/02/22 11:47:56;;;;;;;80.50;54.83;;;;;;;;;;5042676;28;20434;-46
2024/02/22 11:50:22;;;;;;;83.50;56.33;;;;;;;;;;5035498;28;20092;-47
2024/02/22 11:52:52;;;;;;;86.22;56.58;;;;;;;;;;5019628;28;20530;-47
2024/02/22 11:55:18;;;;;;;83.85;58.20;;;;;;;;;;5035902;28;20039;-49
2024/02/22 11:57:44;;;;;;;87.07;58.40;;;;;;;;;;5027181;28;20065;-48
2024/02/22 12:00:11;;;;;;;81.25;53.00;;;;;;;;;;5030204;28;20133;-50
2024/02/22 12:02:41;;;;;;;86.55;55.78;;;;;;;;;;5035537;28;20021;-47
2024/02/22 12:05:09;;;;;;;77.57;52.53;;;;;;;;;;5039580;28;20035;-49
2024/02/22 12:07:36;;;;;;;84.40;54.42;;;;;;;;;;5042344;28;20525;-50
2024/02/22 12:10:02;;;;;;;79.68;59.00;;;;;;;;;;5033981;28;20045;-46
2024/02/22 12:12:33;;;;;;;92.30;58.97;;;;;;;;;;5043326;28;20025;-51
2024/02/22 12:15:01;;;;;;;86.32;58.90;;;;;;;;;;5043003;28;20790;-47
2024/02/22 12:17:34;;;;;;;87.28;62.38;;;;;;;;;;5041992;28;20081;-49
2024/02/22 12:20:01;;;;;;;86.78;57.47;;;;;;;;;;5034762;28;20034;-50
2024/02/22 12:22:33;;;;;;;88.03;58.13;;;;;;;;;;5043357;28;20080;-48
2024/02/22 12:25:00;;;;;;;88.68;56.55;;;;;;;;;;5043608;28;20569;-49
2024/02/22 12:27:26;;;;;;;81.05;54.78;;;;;;;;;;5051808;28;20075;-48
2024/02/22 12:29:54;;;;;;;85.28;57.92;;;;;;;;;;5051932;28;20031;-47
2024/02/22 12:32:21;;;;;;;87.38;57.88;;;;;;;;;;5034804;28;20745;-47
2024/02/22 12:34:47;;;;;;;82.85;56.85;;;;;;;;;;5033949;28;20056;-49
2024/02/22 12:37:13;;;;;;;83.20;56.58;;;;;;;;;;5035000;28;20026;-47
2024/02/22 12:39:40;;;;;;;81.57;54.10;;;;;;;;;;5032457;28;20042;-47
2024/02/22 12:42:07;;;;;;;82.90;55.15;;;;;;;;;;5033646;28;20120;-47
2024/02/22 12:44:33;;;;;;;76.78;52.33;;;;;;;;;;5033564;28;20021;-51
2024/02/22 12:47:00;;;;;;;83.20;54.03;;;;;;;;;;5049654;28;20495;-47
2024/02/22 12:49:28;;;;;;;79.85;52.47;;;;;;;;;;5053247;28;20407;-47
2024/02/22 12:51:55;;;;;;;76.35;52.50;;;;;;;;;;5053747;28;20502;-48
2024/02/22 12:54:24;;;;;;;77.15;52.08;;;;;;;;;;5045274;28;20034;-48
2024/02/22 12:56:51;;;;;;;81.80;54.30;;;;;;;;;;5033789;28;20029;-47
2024/02/22 12:59:18;;;;;;;79.78;52.38;;;;;;;;;;5030197;28;20056;-47
2024/02/22 13:01:47;;;;;;;81.50;52.08;;;;;;;;;;5033412;28;20108;-49
2024/02/22 13:04:14;;;;;;;79.80;52.60;;;;;;;;;;5033741;28;20030;-47
2024/02/22 13:06:40;;;;;;;76.10;51.88;;;;;;;;;;5033357;28;20038;-49
2024/02/22 13:09:06;;;;;;;76.03;51.50;;;;;;;;;;5033231;28;20037;-51
2024/02/22 13:11:33;;;;;;;81.43;54.72;;;;;;;;;;5031854;28;20035;-47
2024/02/22 13:13:59;;;;;;;76.70;52.37;;;;;;;;;;5033560;28;20036;-47
2024/02/22 13:16:28;;;;;;;82.82;53.17;;;;;;;;;;5044277;28;20862;-47
2024/02/22 13:18:54;;;;;;;88.07;56.95;;;;;;;;;;5050091;28;20652;-47
2024/02/22 13:21:21;;;;;;;86.93;54.07;;;;;;;;;;5033284;28;20029;-49
2024/02/22 13:23:47;;;;;;;88.03;55.13;;;;;;;;;;5031838;28;20452;-48
2024/02/22 13:26:13;;;;;;;79.53;55.13;;;;;;;;;;5032892;28;20029;-48
2024/02/22 13:28:39;;;;;;;86.20;57.83;;;;;;;;;;5033959;28;20025;-48
2024/02/22 13:31:06;;;;;;;87.70;55.20;;;;;;;;;;5049001;28;20040;-47
2024/02/22 13:33:32;;;;;;;88.17;56.63;;;;;;;;;;5051522;28;20033;-47
2024/02/22 13:35:58;;;;;;;89.63;59.00;;;;;;;;;;5032479;28;20083;-48
2024/02/22 13:38:25;;;;;;;95.40;63.63;;;;;;;;;;5045902;28;20028;-48
2024/02/22 13:40:51;;;;;;;99.37;62.33;;;;;;;;;;5052049;28;20128;-47
2024/02/22 13:43:18;;;;;;;99.82;64.55;;;;;;;;;;5051385;28;20270;-47
2024/02/22 13:45:44;;;;;;;85.60;55.15;;;;;;;;;;5045457;28;20549;-50
2024/02/22 13:48:11;;;;;;;77.78;51.45;;;;;;;;;;5032535;28;20061;-47
2024/02/22 13:50:38;;;;;;;71.75;48.63;;;;;;;;;;5045855;28;20487;-47
2024/02/22 13:53:04;;;;;;;73.65;50.00;;;;;;;;;;5052520;28;20028;-50
2024/02/22 13:55:31;;;;;;;75.53;50.27;;;;;;;;;;5035383;28;20037;-48
2024/02/22 13:57:57;;;;;;;73.35;50.03;;;;;;;;;;5043224;28;20032;-49
2024/02/22 14:00:24;;;;;;;80.20;51.95;;;;;;;;;;5044903;22;20432;-47
2024/02/22 14:02:51;;;;;;;75.63;50.97;;;;;;;;;;5070718;28;20024;-47
2024/02/22 14:05:17;;;;;;;74.53;49.20;;;;;;;;;;5071655;28;20417;-48
2024/02/22 14:07:51;;;;;;;68.45;47.40;;;;;;;;;;5070559;28;20028;-48
2024/02/22 14:10:18;;;;;;;70.78;46.83;;;;;;;;;;5070640;28;20036;-47
2024/02/22 14:12:44;;;;;;;72.70;48.20;;;;;;;;;;5071595;28;20028;-47
2024/02/22 14:15:11;;;;;;;74.07;49.75;;;;;;;;;;5062633;28;20025;-47
2024/02/22 14:17:39;;;;;;;75.40;45.17;;;;;;;;;;5033628;28;20552;-46